James M Cox Dayton International Airport
KDAY : now visible

Aeroporto :











RITROVATECI SU...

 
LOGIN :

Iscrizione | Disclaimer

   EN    FR    IT 

 









Sommario :    VFR   VFR Marginale   IFR   IFR Intensivo   IFR Molto Intensivo
Visibilità : 
Base nubi : 
>= 8 km
>= 3000ft
5 / 8 km
1000 / 3000 ft
1500m / 5 km
500 / 1000 ft
800 / 1500m
200 / 500 ft
< 800m
< 200 ft
Simboli :   Temporali  Nebbia  Neve Forte  Precipitazioni Forti  Vento > 20 kt






- Altitudine del aeroporto : 1009 ft
- Codice IATA : DAY


KDAY - James M Cox Dayton International

ULTIMO METAR :
  • 181910Z 22020G28KT 7SM -RA BKN010 OVC014 09/07 A2974 RMK AO2 PK WND 23028/1906 RAB06 P0000 T00890067 $

METARs OBSOLETI :
  • 181856Z 22019G27KT 7SM BKN007 OVC013 08/07 A2974 RMK AO2 PK WND 20030/1842 RAB29E54 SLP077 P0001 T00830067 $
  • 181756Z 21016G27KT 7SM OVC005 07/05 A2977 RMK AO2 PK WND 20027/1747 RAE54 SLP088 P0002 60062 T00670050 10067 20011 58046 $
  • 181656Z 19014G22KT 6SM -RA BR OVC005 04/03 A2982 RMK AO2 SLP107 P0001 T00440033 $
  • 181627Z 18013KT 7SM -RA OVC007 03/02 A2985 RMK AO2 P0001 T00330017 $

TAF KDAY
Valido dal 18 a 18 ore il 19 a 18 ore UTC


181743Z 1818/1918 21018G28KT 6SM -SHRA BR OVC005 WS020/23055KT
FM182100 25022G35KT P6SM OVC015
FM190300 27020G30KT P6SM OVC018
FM190900 27015G25KT P6SM OVC018
FM191500 27014G22KT P6SM OVC022



MetMap, La meteo Aeronautica in un colpo d'occhio ! - Copyright ORBIFLY Dicembre 2007 - Disclaimer

ORBIFLY MET'MAP TEAM :

Programmazione e sviluppo : Alexandra Zaïnal
Concezione : Baudouin d'Aumeries
Aiuto per la programmazione : Marc-Olivier Méhu
Supporto tecnico e logistico : Manuel Goepfert
Aiuto per la traduzione : Arnaldo La Scala

Contatto : metmap@orbifly.com




FONTI E CREDITI :

   NOAA       Earth
Advisory